sensor_id;sensor_type;location;lat;lon;timestamp;P1;durP1;ratioP1;P2;durP2;ratioP2
18217;SDS011;9234;49.344;11.120;2022-10-26T00:01:21;11.87;;;4.97;;
18217;SDS011;9234;49.344;11.120;2022-10-26T00:03:53;8.03;;;4.37;;
18217;SDS011;9234;49.344;11.120;2022-10-26T00:06:23;7.40;;;3.90;;
18217;SDS011;9234;49.344;11.120;2022-10-26T00:08:54;8.33;;;4.50;;
18217;SDS011;9234;49.344;11.120;2022-10-26T00:11:23;8.17;;;4.67;;
18217;SDS011;9234;49.344;11.120;2022-10-26T00:13:52;8.83;;;4.37;;
18217;SDS011;9234;49.344;11.120;2022-10-26T00:16:21;7.70;;;5.10;;
18217;SDS011;9234;49.344;11.120;2022-10-26T00:18:53;10.47;;;5.57;;
18217;SDS011;9234;49.344;11.120;2022-10-26T00:21:21;10.07;;;5.53;;
18217;SDS011;9234;49.344;11.120;2022-10-26T00:23:50;11.10;;;5.10;;
18217;SDS011;9234;49.344;11.120;2022-10-26T00:26:18;12.10;;;5.53;;
18217;SDS011;9234;49.344;11.120;2022-10-26T00:28:46;8.73;;;5.00;;
18217;SDS011;9234;49.344;11.120;2022-10-26T00:31:14;8.70;;;4.90;;
18217;SDS011;9234;49.344;11.120;2022-10-26T00:33:43;9.53;;;4.70;;
18217;SDS011;9234;49.344;11.120;2022-10-26T00:36:13;11.27;;;4.87;;
18217;SDS011;9234;49.344;11.120;2022-10-26T00:38:42;9.40;;;4.33;;
18217;SDS011;9234;49.344;11.120;2022-10-26T00:41:16;7.23;;;4.40;;
18217;SDS011;9234;49.344;11.120;2022-10-26T00:43:47;8.60;;;4.70;;
18217;SDS011;9234;49.344;11.120;2022-10-26T00:46:16;6.27;;;4.97;;
18217;SDS011;9234;49.344;11.120;2022-10-26T00:48:50;5.60;;;4.70;;
18217;SDS011;9234;49.344;11.120;2022-10-26T00:51:25;5.83;;;4.53;;
18217;SDS011;9234;49.344;11.120;2022-10-26T00:53:59;9.77;;;5.13;;
18217;SDS011;9234;49.344;11.120;2022-10-26T00:56:31;10.20;;;4.47;;
18217;SDS011;9234;49.344;11.120;2022-10-26T00:59:03;7.97;;;4.47;;
18217;SDS011;9234;49.344;11.120;2022-10-26T01:01:34;6.73;;;4.17;;
18217;SDS011;9234;49.344;11.120;2022-10-26T01:04:07;6.80;;;4.53;;
18217;SDS011;9234;49.344;11.120;2022-10-26T01:06:37;6.70;;;4.17;;
18217;SDS011;9234;49.344;11.120;2022-10-26T01:09:07;6.93;;;4.60;;
18217;SDS011;9234;49.344;11.120;2022-10-26T01:11:37;9.20;;;4.23;;
18217;SDS011;9234;49.344;11.120;2022-10-26T01:14:06;7.00;;;3.77;;
18217;SDS011;9234;49.344;11.120;2022-10-26T01:16:45;7.90;;;4.47;;
18217;SDS011;9234;49.344;11.120;2022-10-26T01:22:50;10.23;;;4.00;;
18217;SDS011;9234;49.344;11.120;2022-10-26T01:25:30;4.70;;;3.53;;
18217;SDS011;9234;49.344;11.120;2022-10-26T01:28:34;4.68;;;4.15;;
18217;SDS011;9234;49.344;11.120;2022-10-26T01:31:26;4.60;;;3.30;;
18217;SDS011;9234;49.344;11.120;2022-10-26T01:34:07;5.53;;;4.10;;
18217;SDS011;9234;49.344;11.120;2022-10-26T01:36:40;8.90;;;4.47;;
18217;SDS011;9234;49.344;11.120;2022-10-26T01:39:18;6.83;;;3.77;;
18217;SDS011;9234;49.344;11.120;2022-10-26T01:41:55;5.15;;;3.55;;
18217;SDS011;9234;49.344;11.120;2022-10-26T01:44:29;5.07;;;4.10;;
18217;SDS011;9234;49.344;11.120;2022-10-26T01:47:06;8.32;;;4.47;;
18217;SDS011;9234;49.344;11.120;2022-10-26T01:49:38;6.17;;;4.27;;
18217;SDS011;9234;49.344;11.120;2022-10-26T01:52:12;6.03;;;4.50;;
18217;SDS011;9234;49.344;11.120;2022-10-26T01:54:40;9.70;;;4.78;;
18217;SDS011;9234;49.344;11.120;2022-10-26T01:57:08;7.33;;;3.90;;
18217;SDS011;9234;49.344;11.120;2022-10-26T01:59:52;9.70;;;4.03;;
18217;SDS011;9234;49.344;11.120;2022-10-26T02:02:43;9.97;;;4.77;;
18217;SDS011;9234;49.344;11.120;2022-10-26T02:05:38;7.60;;;4.00;;
18217;SDS011;9234;49.344;11.120;2022-10-26T02:08:32;6.60;;;4.90;;
18217;SDS011;9234;49.344;11.120;2022-10-26T02:11:23;7.88;;;5.10;;
18217;SDS011;9234;49.344;11.120;2022-10-26T02:14:11;7.68;;;4.45;;
18217;SDS011;9234;49.344;11.120;2022-10-26T02:16:49;7.10;;;4.10;;
18217;SDS011;9234;49.344;11.120;2022-10-26T02:19:31;6.30;;;4.80;;
18217;SDS011;9234;49.344;11.120;2022-10-26T02:22:08;5.85;;;4.03;;
18217;SDS011;9234;49.344;11.120;2022-10-26T02:24:43;5.93;;;4.07;;
18217;SDS011;9234;49.344;11.120;2022-10-26T02:27:15;6.55;;;3.90;;
18217;SDS011;9234;49.344;11.120;2022-10-26T02:29:51;8.38;;;4.10;;
18217;SDS011;9234;49.344;11.120;2022-10-26T02:32:24;7.45;;;4.22;;
18217;SDS011;9234;49.344;11.120;2022-10-26T02:35:01;4.30;;;3.47;;
18217;SDS011;9234;49.344;11.120;2022-10-26T02:37:32;9.90;;;3.53;;
18217;SDS011;9234;49.344;11.120;2022-10-26T02:40:05;8.03;;;4.13;;
18217;SDS011;9234;49.344;11.120;2022-10-26T02:42:40;7.70;;;4.00;;
18217;SDS011;9234;49.344;11.120;2022-10-26T02:45:14;9.60;;;4.50;;
18217;SDS011;9234;49.344;11.120;2022-10-26T02:47:47;6.60;;;4.35;;
18217;SDS011;9234;49.344;11.120;2022-10-26T02:50:18;5.13;;;3.57;;
18217;SDS011;9234;49.344;11.120;2022-10-26T02:52:56;7.57;;;3.58;;
18217;SDS011;9234;49.344;11.120;2022-10-26T02:55:35;5.90;;;3.80;;
18217;SDS011;9234;49.344;11.120;2022-10-26T02:58:14;8.70;;;3.85;;
18217;SDS011;9234;49.344;11.120;2022-10-26T03:00:49;9.45;;;3.97;;
18217;SDS011;9234;49.344;11.120;2022-10-26T03:03:18;7.83;;;3.83;;
18217;SDS011;9234;49.344;11.120;2022-10-26T03:05:49;6.38;;;3.83;;
18217;SDS011;9234;49.344;11.120;2022-10-26T03:08:18;7.78;;;3.40;;
18217;SDS011;9234;49.344;11.120;2022-10-26T03:10:46;8.80;;;3.90;;
18217;SDS011;9234;49.344;11.120;2022-10-26T03:13:14;7.30;;;4.05;;
18217;SDS011;9234;49.344;11.120;2022-10-26T03:15:42;6.53;;;4.15;;
18217;SDS011;9234;49.344;11.120;2022-10-26T03:18:10;9.65;;;3.65;;
18217;SDS011;9234;49.344;11.120;2022-10-26T03:20:38;6.18;;;4.18;;
18217;SDS011;9234;49.344;11.120;2022-10-26T03:23:11;8.13;;;3.50;;
18217;SDS011;9234;49.344;11.120;2022-10-26T03:25:39;8.05;;;5.13;;
18217;SDS011;9234;49.344;11.120;2022-10-26T03:28:07;10.75;;;7.47;;
18217;SDS011;9234;49.344;11.120;2022-10-26T03:30:35;14.27;;;9.45;;
18217;SDS011;9234;49.344;11.120;2022-10-26T03:33:04;13.73;;;9.32;;
18217;SDS011;9234;49.344;11.120;2022-10-26T03:35:32;11.90;;;7.28;;
18217;SDS011;9234;49.344;11.120;2022-10-26T03:38:00;9.43;;;6.60;;
18217;SDS011;9234;49.344;11.120;2022-10-26T03:40:29;8.90;;;6.45;;
18217;SDS011;9234;49.344;11.120;2022-10-26T03:42:58;8.82;;;5.25;;
18217;SDS011;9234;49.344;11.120;2022-10-26T03:45:26;12.27;;;6.10;;
18217;SDS011;9234;49.344;11.120;2022-10-26T03:47:54;7.70;;;5.03;;
18217;SDS011;9234;49.344;11.120;2022-10-26T03:50:22;9.57;;;5.40;;
18217;SDS011;9234;49.344;11.120;2022-10-26T03:52:50;8.32;;;4.55;;
18217;SDS011;9234;49.344;11.120;2022-10-26T03:55:18;10.10;;;4.28;;
18217;SDS011;9234;49.344;11.120;2022-10-26T03:57:48;7.45;;;4.80;;
18217;SDS011;9234;49.344;11.120;2022-10-26T04:00:16;7.05;;;4.00;;
18217;SDS011;9234;49.344;11.120;2022-10-26T04:02:45;5.70;;;3.90;;
18217;SDS011;9234;49.344;11.120;2022-10-26T04:05:22;7.03;;;3.80;;
18217;SDS011;9234;49.344;11.120;2022-10-26T04:07:52;3.75;;;3.38;;
18217;SDS011;9234;49.344;11.120;2022-10-26T04:10:20;6.03;;;3.90;;
18217;SDS011;9234;49.344;11.120;2022-10-26T04:12:51;4.82;;;3.13;;
18217;SDS011;9234;49.344;11.120;2022-10-26T04:15:20;7.78;;;3.30;;
18217;SDS011;9234;49.344;11.120;2022-10-26T04:17:54;4.47;;;3.10;;
18217;SDS011;9234;49.344;11.120;2022-10-26T04:20:23;4.18;;;3.28;;
18217;SDS011;9234;49.344;11.120;2022-10-26T04:22:56;5.97;;;3.67;;
18217;SDS011;9234;49.344;11.120;2022-10-26T04:25:25;4.13;;;2.90;;
18217;SDS011;9234;49.344;11.120;2022-10-26T04:28:00;6.82;;;3.75;;
18217;SDS011;9234;49.344;11.120;2022-10-26T04:30:30;3.80;;;3.03;;
18217;SDS011;9234;49.344;11.120;2022-10-26T04:33:00;7.63;;;3.40;;
18217;SDS011;9234;49.344;11.120;2022-10-26T04:35:29;5.75;;;2.92;;
18217;SDS011;9234;49.344;11.120;2022-10-26T04:37:58;4.80;;;3.72;;
18217;SDS011;9234;49.344;11.120;2022-10-26T04:40:27;6.25;;;3.88;;
18217;SDS011;9234;49.344;11.120;2022-10-26T04:42:57;4.50;;;3.80;;
18217;SDS011;9234;49.344;11.120;2022-10-26T04:45:27;4.63;;;2.65;;
18217;SDS011;9234;49.344;11.120;2022-10-26T04:48:00;5.78;;;3.33;;
18217;SDS011;9234;49.344;11.120;2022-10-26T04:50:29;6.15;;;3.40;;
18217;SDS011;9234;49.344;11.120;2022-10-26T04:53:01;5.18;;;3.60;;
18217;SDS011;9234;49.344;11.120;2022-10-26T04:55:30;5.10;;;3.58;;
18217;SDS011;9234;49.344;11.120;2022-10-26T04:57:58;5.35;;;2.70;;
18217;SDS011;9234;49.344;11.120;2022-10-26T05:00:29;7.38;;;3.30;;
18217;SDS011;9234;49.344;11.120;2022-10-26T05:02:58;5.75;;;3.65;;
18217;SDS011;9234;49.344;11.120;2022-10-26T05:05:26;3.30;;;2.90;;
18217;SDS011;9234;49.344;11.120;2022-10-26T05:07:55;3.45;;;2.63;;
18217;SDS011;9234;49.344;11.120;2022-10-26T05:10:24;4.47;;;2.83;;
18217;SDS011;9234;49.344;11.120;2022-10-26T05:12:53;5.90;;;2.72;;
18217;SDS011;9234;49.344;11.120;2022-10-26T05:15:23;4.15;;;2.67;;
18217;SDS011;9234;49.344;11.120;2022-10-26T05:17:56;5.30;;;2.67;;
18217;SDS011;9234;49.344;11.120;2022-10-26T05:20:29;6.47;;;2.90;;
18217;SDS011;9234;49.344;11.120;2022-10-26T05:23:00;3.55;;;2.60;;
18217;SDS011;9234;49.344;11.120;2022-10-26T05:25:30;5.05;;;2.83;;
18217;SDS011;9234;49.344;11.120;2022-10-26T05:28:02;4.22;;;2.28;;
18217;SDS011;9234;49.344;11.120;2022-10-26T05:30:33;7.05;;;3.10;;
18217;SDS011;9234;49.344;11.120;2022-10-26T05:33:03;3.05;;;2.53;;
18217;SDS011;9234;49.344;11.120;2022-10-26T05:35:32;6.63;;;3.13;;
18217;SDS011;9234;49.344;11.120;2022-10-26T05:38:05;4.30;;;3.05;;
18217;SDS011;9234;49.344;11.120;2022-10-26T05:40:34;4.45;;;3.53;;
18217;SDS011;9234;49.344;11.120;2022-10-26T05:43:03;5.13;;;3.75;;
18217;SDS011;9234;49.344;11.120;2022-10-26T05:45:31;6.30;;;3.75;;
18217;SDS011;9234;49.344;11.120;2022-10-26T05:47:59;6.32;;;3.55;;
18217;SDS011;9234;49.344;11.120;2022-10-26T05:50:30;4.65;;;3.22;;
18217;SDS011;9234;49.344;11.120;2022-10-26T05:52:58;4.10;;;3.70;;
18217;SDS011;9234;49.344;11.120;2022-10-26T05:55:26;4.22;;;3.05;;
18217;SDS011;9234;49.344;11.120;2022-10-26T05:57:55;7.82;;;3.67;;
18217;SDS011;9234;49.344;11.120;2022-10-26T06:00:25;6.13;;;3.63;;
18217;SDS011;9234;49.344;11.120;2022-10-26T06:06:00;6.35;;;3.58;;
18217;SDS011;9234;49.344;11.120;2022-10-26T06:08:32;4.72;;;3.75;;
18217;SDS011;9234;49.344;11.120;2022-10-26T06:11:01;5.28;;;3.97;;
18217;SDS011;9234;49.344;11.120;2022-10-26T06:13:30;6.57;;;3.30;;
18217;SDS011;9234;49.344;11.120;2022-10-26T06:16:06;3.83;;;2.83;;
18217;SDS011;9234;49.344;11.120;2022-10-26T06:18:52;14.63;;;5.20;;
18217;SDS011;9234;49.344;11.120;2022-10-26T06:21:40;7.28;;;4.75;;
18217;SDS011;9234;49.344;11.120;2022-10-26T06:24:28;5.10;;;3.15;;
18217;SDS011;9234;49.344;11.120;2022-10-26T06:27:20;4.95;;;2.92;;
18217;SDS011;9234;49.344;11.120;2022-10-26T06:29:55;4.57;;;2.35;;
18217;SDS011;9234;49.344;11.120;2022-10-26T06:32:27;9.35;;;2.72;;
18217;SDS011;9234;49.344;11.120;2022-10-26T06:34:58;4.22;;;2.58;;
18217;SDS011;9234;49.344;11.120;2022-10-26T06:37:41;4.43;;;2.33;;
18217;SDS011;9234;49.344;11.120;2022-10-26T06:40:12;4.18;;;2.53;;
18217;SDS011;9234;49.344;11.120;2022-10-26T06:42:43;5.43;;;2.28;;
18217;SDS011;9234;49.344;11.120;2022-10-26T06:45:13;5.35;;;3.33;;
18217;SDS011;9234;49.344;11.120;2022-10-26T06:47:45;3.40;;;2.50;;
18217;SDS011;9234;49.344;11.120;2022-10-26T06:50:26;5.35;;;3.05;;
18217;SDS011;9234;49.344;11.120;2022-10-26T06:53:13;4.65;;;2.70;;
18217;SDS011;9234;49.344;11.120;2022-10-26T06:55:53;4.45;;;2.47;;
18217;SDS011;9234;49.344;11.120;2022-10-26T06:58:26;5.30;;;2.40;;
18217;SDS011;9234;49.344;11.120;2022-10-26T07:00:59;4.90;;;2.60;;
18217;SDS011;9234;49.344;11.120;2022-10-26T07:03:28;3.38;;;2.38;;
18217;SDS011;9234;49.344;11.120;2022-10-26T07:05:56;3.78;;;2.65;;
18217;SDS011;9234;49.344;11.120;2022-10-26T07:08:26;2.92;;;2.30;;
18217;SDS011;9234;49.344;11.120;2022-10-26T07:10:56;3.72;;;2.00;;
18217;SDS011;9234;49.344;11.120;2022-10-26T07:13:24;5.78;;;1.92;;
18217;SDS011;9234;49.344;11.120;2022-10-26T07:15:52;4.32;;;2.03;;
18217;SDS011;9234;49.344;11.120;2022-10-26T07:18:20;5.45;;;2.13;;
18217;SDS011;9234;49.344;11.120;2022-10-26T07:20:48;7.72;;;2.75;;
18217;SDS011;9234;49.344;11.120;2022-10-26T07:23:16;3.38;;;1.73;;
18217;SDS011;9234;49.344;11.120;2022-10-26T07:25:46;2.55;;;1.90;;
18217;SDS011;9234;49.344;11.120;2022-10-26T07:28:14;4.30;;;2.22;;
18217;SDS011;9234;49.344;11.120;2022-10-26T07:30:42;3.10;;;1.98;;
18217;SDS011;9234;49.344;11.120;2022-10-26T07:33:10;2.45;;;2.13;;
18217;SDS011;9234;49.344;11.120;2022-10-26T07:35:40;2.92;;;1.98;;
18217;SDS011;9234;49.344;11.120;2022-10-26T07:38:08;1.90;;;1.60;;
18217;SDS011;9234;49.344;11.120;2022-10-26T07:40:39;8.05;;;2.13;;
18217;SDS011;9234;49.344;11.120;2022-10-26T07:43:09;4.50;;;2.08;;
18217;SDS011;9234;49.344;11.120;2022-10-26T07:45:37;4.18;;;1.75;;
18217;SDS011;9234;49.344;11.120;2022-10-26T07:48:05;2.40;;;1.75;;
18217;SDS011;9234;49.344;11.120;2022-10-26T07:50:34;6.20;;;1.80;;
18217;SDS011;9234;49.344;11.120;2022-10-26T07:53:02;5.65;;;1.98;;
18217;SDS011;9234;49.344;11.120;2022-10-26T07:55:30;7.10;;;2.00;;
18217;SDS011;9234;49.344;11.120;2022-10-26T07:57:58;5.60;;;1.90;;
18217;SDS011;9234;49.344;11.120;2022-10-26T08:00:28;1.80;;;1.50;;
18217;SDS011;9234;49.344;11.120;2022-10-26T08:02:56;2.35;;;1.80;;
18217;SDS011;9234;49.344;11.120;2022-10-26T08:05:25;3.20;;;2.13;;
18217;SDS011;9234;49.344;11.120;2022-10-26T08:07:53;2.78;;;1.70;;
18217;SDS011;9234;49.344;11.120;2022-10-26T08:10:21;2.88;;;1.90;;
18217;SDS011;9234;49.344;11.120;2022-10-26T08:12:50;3.33;;;1.65;;
18217;SDS011;9234;49.344;11.120;2022-10-26T08:15:20;2.95;;;1.83;;
18217;SDS011;9234;49.344;11.120;2022-10-26T08:17:49;3.60;;;1.60;;
18217;SDS011;9234;49.344;11.120;2022-10-26T08:20:18;5.68;;;2.08;;
18217;SDS011;9234;49.344;11.120;2022-10-26T08:22:46;3.38;;;1.90;;
18217;SDS011;9234;49.344;11.120;2022-10-26T08:25:15;4.57;;;2.10;;
18217;SDS011;9234;49.344;11.120;2022-10-26T08:27:46;3.75;;;1.90;;
18217;SDS011;9234;49.344;11.120;2022-10-26T08:30:15;4.72;;;2.00;;
18217;SDS011;9234;49.344;11.120;2022-10-26T08:32:43;3.95;;;2.10;;
18217;SDS011;9234;49.344;11.120;2022-10-26T08:35:13;2.08;;;1.50;;
18217;SDS011;9234;49.344;11.120;2022-10-26T08:37:41;3.60;;;2.00;;
18217;SDS011;9234;49.344;11.120;2022-10-26T08:40:10;1.83;;;1.73;;
18217;SDS011;9234;49.344;11.120;2022-10-26T08:42:44;5.32;;;2.22;;
18217;SDS011;9234;49.344;11.120;2022-10-26T08:45:21;5.25;;;2.15;;
18217;SDS011;9234;49.344;11.120;2022-10-26T08:48:03;2.95;;;1.50;;
18217;SDS011;9234;49.344;11.120;2022-10-26T08:50:40;2.95;;;2.20;;
18217;SDS011;9234;49.344;11.120;2022-10-26T08:53:16;3.47;;;2.28;;
18217;SDS011;9234;49.344;11.120;2022-10-26T08:55:50;6.32;;;2.55;;
18217;SDS011;9234;49.344;11.120;2022-10-26T08:58:26;4.35;;;2.00;;
18217;SDS011;9234;49.344;11.120;2022-10-26T09:01:02;3.17;;;2.17;;
18217;SDS011;9234;49.344;11.120;2022-10-26T09:03:31;3.65;;;1.88;;
18217;SDS011;9234;49.344;11.120;2022-10-26T09:06:11;3.95;;;2.45;;
18217;SDS011;9234;49.344;11.120;2022-10-26T09:08:57;3.85;;;2.20;;
18217;SDS011;9234;49.344;11.120;2022-10-26T09:11:41;4.85;;;2.03;;
18217;SDS011;9234;49.344;11.120;2022-10-26T09:14:23;5.47;;;2.47;;
18217;SDS011;9234;49.344;11.120;2022-10-26T09:17:11;3.83;;;2.42;;
18217;SDS011;9234;49.344;11.120;2022-10-26T09:20:00;4.65;;;2.35;;
18217;SDS011;9234;49.344;11.120;2022-10-26T09:22:44;5.00;;;2.45;;
18217;SDS011;9234;49.344;11.120;2022-10-26T09:25:25;4.60;;;2.35;;
18217;SDS011;9234;49.344;11.120;2022-10-26T09:28:01;3.72;;;2.17;;
18217;SDS011;9234;49.344;11.120;2022-10-26T09:30:30;3.33;;;2.25;;
18217;SDS011;9234;49.344;11.120;2022-10-26T09:33:01;4.70;;;2.17;;
18217;SDS011;9234;49.344;11.120;2022-10-26T09:35:42;6.60;;;2.53;;
18217;SDS011;9234;49.344;11.120;2022-10-26T09:38:18;3.42;;;1.95;;
18217;SDS011;9234;49.344;11.120;2022-10-26T09:40:55;4.63;;;2.22;;
18217;SDS011;9234;49.344;11.120;2022-10-26T09:43:32;4.75;;;2.65;;
18217;SDS011;9234;49.344;11.120;2022-10-26T09:46:09;5.50;;;2.55;;
18217;SDS011;9234;49.344;11.120;2022-10-26T09:48:48;4.07;;;2.30;;
18217;SDS011;9234;49.344;11.120;2022-10-26T09:51:22;6.05;;;2.05;;
18217;SDS011;9234;49.344;11.120;2022-10-26T09:53:53;5.00;;;2.08;;
18217;SDS011;9234;49.344;11.120;2022-10-26T09:56:26;5.45;;;2.42;;
18217;SDS011;9234;49.344;11.120;2022-10-26T09:58:57;4.60;;;2.92;;
18217;SDS011;9234;49.344;11.120;2022-10-26T10:01:31;3.55;;;2.10;;
18217;SDS011;9234;49.344;11.120;2022-10-26T10:04:08;2.58;;;2.33;;
18217;SDS011;9234;49.344;11.120;2022-10-26T10:06:46;5.55;;;2.58;;
18217;SDS011;9234;49.344;11.120;2022-10-26T10:09:18;4.38;;;2.30;;
18217;SDS011;9234;49.344;11.120;2022-10-26T10:11:50;3.45;;;1.92;;
18217;SDS011;9234;49.344;11.120;2022-10-26T10:14:22;3.70;;;2.30;;
18217;SDS011;9234;49.344;11.120;2022-10-26T10:16:53;2.78;;;2.28;;
18217;SDS011;9234;49.344;11.120;2022-10-26T10:19:25;5.05;;;2.30;;
18217;SDS011;9234;49.344;11.120;2022-10-26T10:21:57;8.27;;;2.97;;
18217;SDS011;9234;49.344;11.120;2022-10-26T10:24:28;3.10;;;2.45;;
18217;SDS011;9234;49.344;11.120;2022-10-26T10:27:00;4.25;;;2.70;;
18217;SDS011;9234;49.344;11.120;2022-10-26T10:29:31;4.18;;;2.20;;
18217;SDS011;9234;49.344;11.120;2022-10-26T10:32:10;2.47;;;1.83;;
18217;SDS011;9234;49.344;11.120;2022-10-26T10:34:42;7.32;;;2.53;;
18217;SDS011;9234;49.344;11.120;2022-10-26T10:37:15;4.50;;;2.03;;
18217;SDS011;9234;49.344;11.120;2022-10-26T10:39:56;4.88;;;2.17;;
18217;SDS011;9234;49.344;11.120;2022-10-26T10:42:29;3.13;;;2.33;;
18217;SDS011;9234;49.344;11.120;2022-10-26T10:45:00;3.95;;;2.15;;
18217;SDS011;9234;49.344;11.120;2022-10-26T10:47:29;6.47;;;2.33;;
18217;SDS011;9234;49.344;11.120;2022-10-26T10:50:01;6.60;;;2.63;;
18217;SDS011;9234;49.344;11.120;2022-10-26T10:52:33;7.32;;;3.60;;
18217;SDS011;9234;49.344;11.120;2022-10-26T10:55:09;4.95;;;2.30;;
18217;SDS011;9234;49.344;11.120;2022-10-26T11:00:40;4.45;;;2.22;;
18217;SDS011;9234;49.344;11.120;2022-10-26T11:03:22;3.85;;;2.38;;
18217;SDS011;9234;49.344;11.120;2022-10-26T11:06:09;4.38;;;2.40;;
18217;SDS011;9234;49.344;11.120;2022-10-26T11:08:45;9.57;;;2.90;;
18217;SDS011;9234;49.344;11.120;2022-10-26T11:11:22;2.80;;;2.05;;
18217;SDS011;9234;49.344;11.120;2022-10-26T11:13:59;4.60;;;2.30;;
18217;SDS011;9234;49.344;11.120;2022-10-26T11:16:36;4.93;;;2.20;;
18217;SDS011;9234;49.344;11.120;2022-10-26T11:19:15;7.22;;;2.20;;
18217;SDS011;9234;49.344;11.120;2022-10-26T11:21:51;4.03;;;1.80;;
18217;SDS011;9234;49.344;11.120;2022-10-26T11:24:22;5.63;;;2.47;;
18217;SDS011;9234;49.344;11.120;2022-10-26T11:26:58;2.35;;;1.80;;
18217;SDS011;9234;49.344;11.120;2022-10-26T11:29:37;3.40;;;2.25;;
18217;SDS011;9234;49.344;11.120;2022-10-26T11:32:18;4.68;;;2.30;;
18217;SDS011;9234;49.344;11.120;2022-10-26T11:34:53;5.45;;;2.45;;
18217;SDS011;9234;49.344;11.120;2022-10-26T11:37:31;3.88;;;2.28;;
18217;SDS011;9234;49.344;11.120;2022-10-26T11:40:13;4.40;;;2.40;;
18217;SDS011;9234;49.344;11.120;2022-10-26T11:42:59;5.60;;;2.20;;
18217;SDS011;9234;49.344;11.120;2022-10-26T11:45:41;3.55;;;2.00;;
18217;SDS011;9234;49.344;11.120;2022-10-26T11:48:13;2.83;;;2.05;;
18217;SDS011;9234;49.344;11.120;2022-10-26T11:50:49;6.68;;;2.42;;
18217;SDS011;9234;49.344;11.120;2022-10-26T11:53:20;3.17;;;2.13;;
18217;SDS011;9234;49.344;11.120;2022-10-26T11:55:55;3.03;;;2.17;;
18217;SDS011;9234;49.344;11.120;2022-10-26T11:58:26;5.60;;;2.10;;
18217;SDS011;9234;49.344;11.120;2022-10-26T12:00:59;5.32;;;2.53;;
18217;SDS011;9234;49.344;11.120;2022-10-26T12:03:35;3.58;;;2.30;;
18217;SDS011;9234;49.344;11.120;2022-10-26T12:06:10;4.93;;;2.70;;
18217;SDS011;9234;49.344;11.120;2022-10-26T12:08:45;8.18;;;2.83;;
18217;SDS011;9234;49.344;11.120;2022-10-26T12:11:20;7.03;;;2.65;;
18217;SDS011;9234;49.344;11.120;2022-10-26T12:14:05;8.13;;;2.80;;
18217;SDS011;9234;49.344;11.120;2022-10-26T12:16:47;4.88;;;2.38;;
18217;SDS011;9234;49.344;11.120;2022-10-26T12:19:27;6.53;;;2.45;;
18217;SDS011;9234;49.344;11.120;2022-10-26T12:22:02;5.88;;;2.03;;
18217;SDS011;9234;49.344;11.120;2022-10-26T12:24:31;7.70;;;2.80;;
18217;SDS011;9234;49.344;11.120;2022-10-26T12:27:01;9.25;;;4.85;;
18217;SDS011;9234;49.344;11.120;2022-10-26T12:29:45;6.65;;;3.92;;
18217;SDS011;9234;49.344;11.120;2022-10-26T12:35:35;6.88;;;3.08;;
18217;SDS011;9234;49.344;11.120;2022-10-26T12:41:25;4.75;;;2.78;;
18217;SDS011;9234;49.344;11.120;2022-10-26T12:44:00;6.38;;;4.10;;
18217;SDS011;9234;49.344;11.120;2022-10-26T12:47:02;9.30;;;4.70;;
18217;SDS011;9234;49.344;11.120;2022-10-26T12:52:48;9.65;;;6.70;;
18217;SDS011;9234;49.344;11.120;2022-10-26T13:01:49;6.93;;;2.70;;
18217;SDS011;9234;49.344;11.120;2022-10-26T13:05:01;4.32;;;3.03;;
18217;SDS011;9234;49.344;11.120;2022-10-26T13:08:00;6.10;;;3.13;;
18217;SDS011;9234;49.344;11.120;2022-10-26T13:10:30;7.13;;;3.72;;
18217;SDS011;9234;49.344;11.120;2022-10-26T13:12:59;6.05;;;4.45;;
18217;SDS011;9234;49.344;11.120;2022-10-26T13:15:32;8.48;;;7.45;;
18217;SDS011;9234;49.344;11.120;2022-10-26T13:18:13;7.18;;;4.15;;
18217;SDS011;9234;49.344;11.120;2022-10-26T13:20:51;8.13;;;3.90;;
18217;SDS011;9234;49.344;11.120;2022-10-26T13:23:29;6.72;;;3.03;;
18217;SDS011;9234;49.344;11.120;2022-10-26T13:26:02;8.15;;;3.15;;
18217;SDS011;9234;49.344;11.120;2022-10-26T13:28:44;4.43;;;2.75;;
18217;SDS011;9234;49.344;11.120;2022-10-26T13:34:23;7.10;;;4.40;;
18217;SDS011;9234;49.344;11.120;2022-10-26T13:37:00;10.48;;;7.60;;
18217;SDS011;9234;49.344;11.120;2022-10-26T13:39:40;6.85;;;4.80;;
18217;SDS011;9234;49.344;11.120;2022-10-26T13:42:14;7.88;;;4.30;;
18217;SDS011;9234;49.344;11.120;2022-10-26T13:44:47;6.80;;;3.47;;
18217;SDS011;9234;49.344;11.120;2022-10-26T13:47:21;5.93;;;3.30;;
18217;SDS011;9234;49.344;11.120;2022-10-26T13:49:57;6.07;;;3.30;;
18217;SDS011;9234;49.344;11.120;2022-10-26T13:52:32;7.72;;;3.33;;
18217;SDS011;9234;49.344;11.120;2022-10-26T13:55:06;7.85;;;4.13;;
18217;SDS011;9234;49.344;11.120;2022-10-26T13:57:58;9.55;;;4.78;;
18217;SDS011;9234;49.344;11.120;2022-10-26T14:03:30;8.15;;;3.30;;
18217;SDS011;9234;49.344;11.120;2022-10-26T14:06:00;5.25;;;3.10;;
18217;SDS011;9234;49.344;11.120;2022-10-26T14:08:31;5.40;;;2.67;;
18217;SDS011;9234;49.344;11.120;2022-10-26T14:11:00;5.22;;;2.85;;
18217;SDS011;9234;49.344;11.120;2022-10-26T14:13:29;6.75;;;2.63;;
18217;SDS011;9234;49.344;11.120;2022-10-26T14:16:07;6.38;;;2.88;;
18217;SDS011;9234;49.344;11.120;2022-10-26T14:18:42;7.75;;;2.45;;
18217;SDS011;9234;49.344;11.120;2022-10-26T14:21:13;11.30;;;4.35;;
18217;SDS011;9234;49.344;11.120;2022-10-26T14:23:47;10.70;;;4.70;;
18217;SDS011;9234;49.344;11.120;2022-10-26T14:26:18;10.32;;;3.65;;
18217;SDS011;9234;49.344;11.120;2022-10-26T14:28:48;9.27;;;4.38;;
18217;SDS011;9234;49.344;11.120;2022-10-26T14:31:23;9.15;;;3.90;;
18217;SDS011;9234;49.344;11.120;2022-10-26T14:33:55;8.05;;;3.40;;
18217;SDS011;9234;49.344;11.120;2022-10-26T14:36:28;5.70;;;3.10;;
18217;SDS011;9234;49.344;11.120;2022-10-26T14:39:04;7.90;;;3.28;;
18217;SDS011;9234;49.344;11.120;2022-10-26T14:41:40;8.90;;;2.40;;
18217;SDS011;9234;49.344;11.120;2022-10-26T14:44:12;7.07;;;3.10;;
18217;SDS011;9234;49.344;11.120;2022-10-26T14:46:45;5.15;;;2.42;;
18217;SDS011;9234;49.344;11.120;2022-10-26T14:49:16;8.52;;;4.10;;
18217;SDS011;9234;49.344;11.120;2022-10-26T14:51:49;9.52;;;4.97;;
18217;SDS011;9234;49.344;11.120;2022-10-26T14:54:25;10.07;;;5.82;;
18217;SDS011;9234;49.344;11.120;2022-10-26T14:56:55;7.18;;;5.07;;
18217;SDS011;9234;49.344;11.120;2022-10-26T14:59:24;8.55;;;4.75;;
18217;SDS011;9234;49.344;11.120;2022-10-26T15:01:55;11.38;;;6.82;;
18217;SDS011;9234;49.344;11.120;2022-10-26T15:04:27;10.07;;;5.55;;
18217;SDS011;9234;49.344;11.120;2022-10-26T15:07:13;7.07;;;4.15;;
18217;SDS011;9234;49.344;11.120;2022-10-26T15:09:45;5.95;;;3.08;;
18217;SDS011;9234;49.344;11.120;2022-10-26T15:12:23;6.85;;;3.28;;
18217;SDS011;9234;49.344;11.120;2022-10-26T15:14:58;6.78;;;3.63;;
18217;SDS011;9234;49.344;11.120;2022-10-26T15:17:50;8.65;;;4.97;;
18217;SDS011;9234;49.344;11.120;2022-10-26T15:20:23;9.48;;;4.50;;
18217;SDS011;9234;49.344;11.120;2022-10-26T15:22:55;8.48;;;3.42;;
18217;SDS011;9234;49.344;11.120;2022-10-26T15:25:26;4.95;;;4.15;;
18217;SDS011;9234;49.344;11.120;2022-10-26T15:28:07;7.20;;;3.25;;
18217;SDS011;9234;49.344;11.120;2022-10-26T15:30:37;7.30;;;3.45;;
18217;SDS011;9234;49.344;11.120;2022-10-26T15:33:09;9.80;;;4.03;;
18217;SDS011;9234;49.344;11.120;2022-10-26T15:35:47;5.57;;;3.90;;
18217;SDS011;9234;49.344;11.120;2022-10-26T15:38:17;7.45;;;3.85;;
18217;SDS011;9234;49.344;11.120;2022-10-26T15:40:45;5.80;;;4.28;;
18217;SDS011;9234;49.344;11.120;2022-10-26T15:43:14;7.43;;;4.35;;
18217;SDS011;9234;49.344;11.120;2022-10-26T15:45:44;6.10;;;3.60;;
18217;SDS011;9234;49.344;11.120;2022-10-26T15:48:15;7.10;;;2.72;;
18217;SDS011;9234;49.344;11.120;2022-10-26T15:50:49;6.30;;;3.15;;
18217;SDS011;9234;49.344;11.120;2022-10-26T15:53:19;7.32;;;2.85;;
18217;SDS011;9234;49.344;11.120;2022-10-26T15:55:53;5.55;;;2.50;;
18217;SDS011;9234;49.344;11.120;2022-10-26T15:58:24;7.20;;;3.70;;